sensor_id;sensor_type;location;lat;lon;timestamp;temperature;humidity
7159;DHT22;63175;52.374;13.132;2023-11-21T00:01:05;9.40;99.90
7159;DHT22;63175;52.374;13.132;2023-11-21T00:03:34;9.40;99.90
7159;DHT22;63175;52.374;13.132;2023-11-21T00:06:01;9.50;99.90
7159;DHT22;63175;52.374;13.132;2023-11-21T00:08:28;9.50;99.90
7159;DHT22;63175;52.374;13.132;2023-11-21T00:10:55;9.50;99.90
7159;DHT22;63175;52.374;13.132;2023-11-21T00:13:22;9.50;99.90
7159;DHT22;63175;52.374;13.132;2023-11-21T00:15:49;9.50;99.90
7159;DHT22;63175;52.374;13.132;2023-11-21T00:18:17;9.50;99.90
7159;DHT22;63175;52.374;13.132;2023-11-21T00:20:44;9.50;99.90
7159;DHT22;63175;52.374;13.132;2023-11-21T00:23:12;9.50;99.90
7159;DHT22;63175;52.374;13.132;2023-11-21T00:25:38;9.50;99.90
7159;DHT22;63175;52.374;13.132;2023-11-21T00:28:05;9.50;99.90
7159;DHT22;63175;52.374;13.132;2023-11-21T00:30:32;9.50;99.90
7159;DHT22;63175;52.374;13.132;2023-11-21T00:32:59;9.50;99.90
7159;DHT22;63175;52.374;13.132;2023-11-21T00:35:28;9.50;99.90
7159;DHT22;63175;52.374;13.132;2023-11-21T00:37:54;9.50;99.90
7159;DHT22;63175;52.374;13.132;2023-11-21T00:40:21;9.50;99.90
7159;DHT22;63175;52.374;13.132;2023-11-21T00:42:48;9.50;99.90
7159;DHT22;63175;52.374;13.132;2023-11-21T00:45:15;9.50;99.90
7159;DHT22;63175;52.374;13.132;2023-11-21T00:47:42;9.50;99.90
7159;DHT22;63175;52.374;13.132;2023-11-21T00:50:09;9.40;99.90
7159;DHT22;63175;52.374;13.132;2023-11-21T00:52:37;9.40;99.90
7159;DHT22;63175;52.374;13.132;2023-11-21T00:55:05;9.40;99.90
7159;DHT22;63175;52.374;13.132;2023-11-21T00:57:33;9.30;99.90
7159;DHT22;63175;52.374;13.132;2023-11-21T01:00:00;9.30;99.90
7159;DHT22;63175;52.374;13.132;2023-11-21T01:02:27;9.30;99.90
7159;DHT22;63175;52.374;13.132;2023-11-21T01:04:54;9.30;99.90
7159;DHT22;63175;52.374;13.132;2023-11-21T01:07:21;9.20;99.90
7159;DHT22;63175;52.374;13.132;2023-11-21T01:09:49;9.20;99.90
7159;DHT22;63175;52.374;13.132;2023-11-21T01:12:16;9.10;99.90
7159;DHT22;63175;52.374;13.132;2023-11-21T01:14:44;9.10;99.90
7159;DHT22;63175;52.374;13.132;2023-11-21T01:17:12;9.10;99.90
7159;DHT22;63175;52.374;13.132;2023-11-21T01:19:38;9.00;99.90
7159;DHT22;63175;52.374;13.132;2023-11-21T01:22:05;9.00;99.90
7159;DHT22;63175;52.374;13.132;2023-11-21T01:24:32;9.00;99.90
7159;DHT22;63175;52.374;13.132;2023-11-21T01:27:00;8.90;99.90
7159;DHT22;63175;52.374;13.132;2023-11-21T01:29:27;8.90;99.90
7159;DHT22;63175;52.374;13.132;2023-11-21T01:31:54;8.90;99.90
7159;DHT22;63175;52.374;13.132;2023-11-21T01:34:22;8.80;99.90
7159;DHT22;63175;52.374;13.132;2023-11-21T01:36:50;8.80;99.90
7159;DHT22;63175;52.374;13.132;2023-11-21T01:39:17;8.80;99.90
7159;DHT22;63175;52.374;13.132;2023-11-21T01:41:49;8.70;99.90
7159;DHT22;63175;52.374;13.132;2023-11-21T01:44:18;8.70;99.90
7159;DHT22;63175;52.374;13.132;2023-11-21T01:46:45;8.70;99.90
7159;DHT22;63175;52.374;13.132;2023-11-21T01:49:13;8.70;99.90
7159;DHT22;63175;52.374;13.132;2023-11-21T01:51:41;8.60;99.90
7159;DHT22;63175;52.374;13.132;2023-11-21T01:54:09;8.60;99.90
7159;DHT22;63175;52.374;13.132;2023-11-21T01:56:37;8.60;99.90
7159;DHT22;63175;52.374;13.132;2023-11-21T01:59:04;8.60;99.90
7159;DHT22;63175;52.374;13.132;2023-11-21T02:01:34;8.60;99.90
7159;DHT22;63175;52.374;13.132;2023-11-21T02:04:01;8.50;99.90
7159;DHT22;63175;52.374;13.132;2023-11-21T02:06:29;8.50;99.90
7159;DHT22;63175;52.374;13.132;2023-11-21T02:08:56;8.50;99.90
7159;DHT22;63175;52.374;13.132;2023-11-21T02:11:25;8.50;99.90
7159;DHT22;63175;52.374;13.132;2023-11-21T02:13:52;8.40;99.90
7159;DHT22;63175;52.374;13.132;2023-11-21T02:16:20;8.40;99.90
7159;DHT22;63175;52.374;13.132;2023-11-21T02:18:49;8.40;99.90
7159;DHT22;63175;52.374;13.132;2023-11-21T02:21:16;8.40;99.90
7159;DHT22;63175;52.374;13.132;2023-11-21T02:23:45;8.30;99.90
7159;DHT22;63175;52.374;13.132;2023-11-21T02:26:12;8.30;99.90
7159;DHT22;63175;52.374;13.132;2023-11-21T02:28:39;8.20;99.90
7159;DHT22;63175;52.374;13.132;2023-11-21T02:31:06;8.20;99.90
7159;DHT22;63175;52.374;13.132;2023-11-21T02:33:33;8.20;99.90
7159;DHT22;63175;52.374;13.132;2023-11-21T02:36:00;8.10;99.90
7159;DHT22;63175;52.374;13.132;2023-11-21T02:38:27;8.10;99.90
7159;DHT22;63175;52.374;13.132;2023-11-21T02:40:57;8.10;99.90
7159;DHT22;63175;52.374;13.132;2023-11-21T02:43:24;8.10;99.90
7159;DHT22;63175;52.374;13.132;2023-11-21T02:45:51;8.10;99.90
7159;DHT22;63175;52.374;13.132;2023-11-21T02:48:18;8.10;99.90
7159;DHT22;63175;52.374;13.132;2023-11-21T02:50:45;8.00;99.90
7159;DHT22;63175;52.374;13.132;2023-11-21T02:53:12;8.00;99.90
7159;DHT22;63175;52.374;13.132;2023-11-21T02:55:40;8.00;99.90
7159;DHT22;63175;52.374;13.132;2023-11-21T02:58:08;8.00;99.90
7159;DHT22;63175;52.374;13.132;2023-11-21T03:00:35;8.00;99.90
7159;DHT22;63175;52.374;13.132;2023-11-21T03:03:02;8.00;99.90
7159;DHT22;63175;52.374;13.132;2023-11-21T03:05:29;8.00;99.90
7159;DHT22;63175;52.374;13.132;2023-11-21T03:07:56;8.00;99.90
7159;DHT22;63175;52.374;13.132;2023-11-21T03:10:23;7.90;99.90
7159;DHT22;63175;52.374;13.132;2023-11-21T03:12:50;7.90;99.90
7159;DHT22;63175;52.374;13.132;2023-11-21T03:15:18;7.90;99.90
7159;DHT22;63175;52.374;13.132;2023-11-21T03:17:45;7.90;99.90
7159;DHT22;63175;52.374;13.132;2023-11-21T03:20:14;7.90;99.90
7159;DHT22;63175;52.374;13.132;2023-11-21T03:22:42;7.90;99.90
7159;DHT22;63175;52.374;13.132;2023-11-21T03:25:09;7.90;99.90
7159;DHT22;63175;52.374;13.132;2023-11-21T03:27:37;7.80;99.90
7159;DHT22;63175;52.374;13.132;2023-11-21T03:30:05;7.80;99.90
7159;DHT22;63175;52.374;13.132;2023-11-21T03:32:35;7.80;99.90
7159;DHT22;63175;52.374;13.132;2023-11-21T03:35:02;7.80;99.90
7159;DHT22;63175;52.374;13.132;2023-11-21T03:37:29;7.80;99.90
7159;DHT22;63175;52.374;13.132;2023-11-21T03:39:56;7.80;99.90
7159;DHT22;63175;52.374;13.132;2023-11-21T03:42:23;7.80;99.90
7159;DHT22;63175;52.374;13.132;2023-11-21T03:44:51;7.80;99.90
7159;DHT22;63175;52.374;13.132;2023-11-21T03:47:18;7.80;99.90
7159;DHT22;63175;52.374;13.132;2023-11-21T03:49:47;7.80;99.90
7159;DHT22;63175;52.374;13.132;2023-11-21T03:52:13;7.70;99.90
7159;DHT22;63175;52.374;13.132;2023-11-21T03:54:40;7.70;99.90
7159;DHT22;63175;52.374;13.132;2023-11-21T03:57:08;7.70;99.90
7159;DHT22;63175;52.374;13.132;2023-11-21T03:59:35;7.70;99.90
7159;DHT22;63175;52.374;13.132;2023-11-21T04:02:02;7.70;99.90
7159;DHT22;63175;52.374;13.132;2023-11-21T04:04:29;7.70;99.90
7159;DHT22;63175;52.374;13.132;2023-11-21T04:06:57;7.60;99.90
7159;DHT22;63175;52.374;13.132;2023-11-21T04:09:24;7.60;99.90
7159;DHT22;63175;52.374;13.132;2023-11-21T04:11:51;7.60;99.90
7159;DHT22;63175;52.374;13.132;2023-11-21T04:14:18;7.60;99.90
7159;DHT22;63175;52.374;13.132;2023-11-21T04:16:45;7.60;99.90
7159;DHT22;63175;52.374;13.132;2023-11-21T04:19:12;7.60;99.90
7159;DHT22;63175;52.374;13.132;2023-11-21T04:21:40;7.60;99.90
7159;DHT22;63175;52.374;13.132;2023-11-21T04:24:08;7.50;99.90
7159;DHT22;63175;52.374;13.132;2023-11-21T04:26:35;7.50;99.90
7159;DHT22;63175;52.374;13.132;2023-11-21T04:29:02;7.50;99.90
7159;DHT22;63175;52.374;13.132;2023-11-21T04:31:30;7.50;99.90
7159;DHT22;63175;52.374;13.132;2023-11-21T04:33:57;7.50;99.90
7159;DHT22;63175;52.374;13.132;2023-11-21T04:36:24;7.50;99.90
7159;DHT22;63175;52.374;13.132;2023-11-21T04:38:51;7.40;99.90
7159;DHT22;63175;52.374;13.132;2023-11-21T04:41:19;7.40;99.90
7159;DHT22;63175;52.374;13.132;2023-11-21T04:43:46;7.40;99.90
7159;DHT22;63175;52.374;13.132;2023-11-21T04:46:13;7.40;99.90
7159;DHT22;63175;52.374;13.132;2023-11-21T04:48:39;7.40;99.90
7159;DHT22;63175;52.374;13.132;2023-11-21T04:51:06;7.40;99.90
7159;DHT22;63175;52.374;13.132;2023-11-21T04:53:33;7.40;99.90
7159;DHT22;63175;52.374;13.132;2023-11-21T04:56:01;7.30;99.90
7159;DHT22;63175;52.374;13.132;2023-11-21T04:58:30;7.30;99.90
7159;DHT22;63175;52.374;13.132;2023-11-21T05:00:58;7.30;99.90
7159;DHT22;63175;52.374;13.132;2023-11-21T05:03:25;7.30;99.90
7159;DHT22;63175;52.374;13.132;2023-11-21T05:05:52;7.30;99.90
7159;DHT22;63175;52.374;13.132;2023-11-21T05:08:19;7.20;99.90
7159;DHT22;63175;52.374;13.132;2023-11-21T05:10:46;7.20;99.90
7159;DHT22;63175;52.374;13.132;2023-11-21T05:13:13;7.20;99.90
7159;DHT22;63175;52.374;13.132;2023-11-21T05:15:44;7.30;99.90
7159;DHT22;63175;52.374;13.132;2023-11-21T05:18:11;7.20;99.90
7159;DHT22;63175;52.374;13.132;2023-11-21T05:20:39;7.20;99.90
7159;DHT22;63175;52.374;13.132;2023-11-21T05:23:06;7.30;99.90
7159;DHT22;63175;52.374;13.132;2023-11-21T05:25:33;7.20;99.90
7159;DHT22;63175;52.374;13.132;2023-11-21T05:28:00;7.20;99.90
7159;DHT22;63175;52.374;13.132;2023-11-21T05:30:28;7.20;99.90
7159;DHT22;63175;52.374;13.132;2023-11-21T05:32:56;7.20;99.90
7159;DHT22;63175;52.374;13.132;2023-11-21T05:35:23;7.20;99.90
7159;DHT22;63175;52.374;13.132;2023-11-21T05:37:50;7.20;99.90
7159;DHT22;63175;52.374;13.132;2023-11-21T05:40:17;7.10;99.90
7159;DHT22;63175;52.374;13.132;2023-11-21T05:42:44;7.10;99.90
7159;DHT22;63175;52.374;13.132;2023-11-21T05:45:11;7.10;99.90
7159;DHT22;63175;52.374;13.132;2023-11-21T05:47:39;7.10;99.90
7159;DHT22;63175;52.374;13.132;2023-11-21T05:50:09;7.10;99.90
7159;DHT22;63175;52.374;13.132;2023-11-21T05:52:37;7.10;99.90
7159;DHT22;63175;52.374;13.132;2023-11-21T05:55:05;7.10;99.90
7159;DHT22;63175;52.374;13.132;2023-11-21T05:57:33;7.10;99.90
7159;DHT22;63175;52.374;13.132;2023-11-21T06:00:02;7.10;99.90
7159;DHT22;63175;52.374;13.132;2023-11-21T06:02:37;7.10;99.90
7159;DHT22;63175;52.374;13.132;2023-11-21T06:05:04;7.10;99.90
7159;DHT22;63175;52.374;13.132;2023-11-21T06:07:32;7.10;99.90
7159;DHT22;63175;52.374;13.132;2023-11-21T06:09:59;7.10;99.90
7159;DHT22;63175;52.374;13.132;2023-11-21T06:12:28;7.10;99.90
7159;DHT22;63175;52.374;13.132;2023-11-21T06:14:55;7.10;99.90
7159;DHT22;63175;52.374;13.132;2023-11-21T06:17:22;7.10;99.90
7159;DHT22;63175;52.374;13.132;2023-11-21T06:19:50;7.10;99.90
7159;DHT22;63175;52.374;13.132;2023-11-21T06:22:18;7.10;99.90
7159;DHT22;63175;52.374;13.132;2023-11-21T06:24:46;7.00;99.90
7159;DHT22;63175;52.374;13.132;2023-11-21T06:27:13;7.00;99.90
7159;DHT22;63175;52.374;13.132;2023-11-21T06:29:41;7.00;99.90
7159;DHT22;63175;52.374;13.132;2023-11-21T06:32:09;7.00;99.90
7159;DHT22;63175;52.374;13.132;2023-11-21T06:34:35;7.00;99.90
7159;DHT22;63175;52.374;13.132;2023-11-21T06:37:02;7.00;99.90
7159;DHT22;63175;52.374;13.132;2023-11-21T06:39:29;6.90;99.90
7159;DHT22;63175;52.374;13.132;2023-11-21T06:41:57;6.90;99.90
7159;DHT22;63175;52.374;13.132;2023-11-21T06:44:25;6.90;99.90
7159;DHT22;63175;52.374;13.132;2023-11-21T06:46:52;6.90;99.90
7159;DHT22;63175;52.374;13.132;2023-11-21T06:49:19;6.90;99.90
7159;DHT22;63175;52.374;13.132;2023-11-21T06:51:46;6.90;99.90
7159;DHT22;63175;52.374;13.132;2023-11-21T06:54:13;6.90;99.90
7159;DHT22;63175;52.374;13.132;2023-11-21T06:56:40;6.90;99.90
7159;DHT22;63175;52.374;13.132;2023-11-21T06:59:08;6.90;99.90
7159;DHT22;63175;52.374;13.132;2023-11-21T07:01:36;6.90;99.90
7159;DHT22;63175;52.374;13.132;2023-11-21T07:04:05;6.90;99.90
7159;DHT22;63175;52.374;13.132;2023-11-21T07:06:32;6.80;99.90
7159;DHT22;63175;52.374;13.132;2023-11-21T07:08:59;6.80;99.90
7159;DHT22;63175;52.374;13.132;2023-11-21T07:11:26;6.80;99.90
7159;DHT22;63175;52.374;13.132;2023-11-21T07:13:53;6.80;99.90
7159;DHT22;63175;52.374;13.132;2023-11-21T07:16:22;6.80;99.90
7159;DHT22;63175;52.374;13.132;2023-11-21T07:18:49;6.80;99.90
7159;DHT22;63175;52.374;13.132;2023-11-21T07:21:16;6.80;99.90
7159;DHT22;63175;52.374;13.132;2023-11-21T07:23:43;6.80;99.90
7159;DHT22;63175;52.374;13.132;2023-11-21T07:26:10;6.80;99.90
7159;DHT22;63175;52.374;13.132;2023-11-21T07:28:37;6.70;99.90
7159;DHT22;63175;52.374;13.132;2023-11-21T07:31:04;6.70;99.90
7159;DHT22;63175;52.374;13.132;2023-11-21T07:33:32;6.70;99.90
7159;DHT22;63175;52.374;13.132;2023-11-21T07:35:59;6.70;99.90
7159;DHT22;63175;52.374;13.132;2023-11-21T07:38:26;6.70;99.90
7159;DHT22;63175;52.374;13.132;2023-11-21T07:40:53;6.60;99.90
7159;DHT22;63175;52.374;13.132;2023-11-21T07:43:20;6.70;99.90
7159;DHT22;63175;52.374;13.132;2023-11-21T07:45:47;6.60;99.90
7159;DHT22;63175;52.374;13.132;2023-11-21T07:48:14;6.70;99.90
7159;DHT22;63175;52.374;13.132;2023-11-21T07:50:43;6.70;99.90
7159;DHT22;63175;52.374;13.132;2023-11-21T07:53:09;6.70;99.90
7159;DHT22;63175;52.374;13.132;2023-11-21T07:55:36;6.70;99.90
7159;DHT22;63175;52.374;13.132;2023-11-21T07:58:03;6.70;99.90
7159;DHT22;63175;52.374;13.132;2023-11-21T08:00:30;6.80;99.90
7159;DHT22;63175;52.374;13.132;2023-11-21T08:02:57;6.80;99.90
7159;DHT22;63175;52.374;13.132;2023-11-21T08:05:24;6.80;99.90
7159;DHT22;63175;52.374;13.132;2023-11-21T08:07:52;6.80;99.90
7159;DHT22;63175;52.374;13.132;2023-11-21T08:10:19;6.80;99.90
7159;DHT22;63175;52.374;13.132;2023-11-21T08:12:47;6.80;99.90
7159;DHT22;63175;52.374;13.132;2023-11-21T08:15:16;6.80;99.90
7159;DHT22;63175;52.374;13.132;2023-11-21T08:17:43;6.80;99.90
7159;DHT22;63175;52.374;13.132;2023-11-21T08:20:11;6.80;99.90
7159;DHT22;63175;52.374;13.132;2023-11-21T08:22:38;6.70;99.90
7159;DHT22;63175;52.374;13.132;2023-11-21T08:25:08;6.70;99.90
7159;DHT22;63175;52.374;13.132;2023-11-21T08:27:35;6.70;99.90
7159;DHT22;63175;52.374;13.132;2023-11-21T08:30:03;6.70;99.90
7159;DHT22;63175;52.374;13.132;2023-11-21T08:32:30;6.70;99.90
7159;DHT22;63175;52.374;13.132;2023-11-21T08:34:57;6.60;99.90
7159;DHT22;63175;52.374;13.132;2023-11-21T08:37:24;6.60;99.90
7159;DHT22;63175;52.374;13.132;2023-11-21T08:39:52;6.60;99.90
7159;DHT22;63175;52.374;13.132;2023-11-21T08:42:21;6.60;99.90
7159;DHT22;63175;52.374;13.132;2023-11-21T08:44:48;6.60;99.90
7159;DHT22;63175;52.374;13.132;2023-11-21T08:47:15;6.60;99.90
7159;DHT22;63175;52.374;13.132;2023-11-21T08:49:42;6.70;99.90
7159;DHT22;63175;52.374;13.132;2023-11-21T08:52:09;6.70;99.90
7159;DHT22;63175;52.374;13.132;2023-11-21T08:54:36;6.70;99.90
7159;DHT22;63175;52.374;13.132;2023-11-21T08:57:03;6.70;99.90
7159;DHT22;63175;52.374;13.132;2023-11-21T08:59:32;6.70;99.90
7159;DHT22;63175;52.374;13.132;2023-11-21T09:01:58;6.70;99.90
7159;DHT22;63175;52.374;13.132;2023-11-21T09:04:25;6.70;99.90
7159;DHT22;63175;52.374;13.132;2023-11-21T09:06:52;6.70;99.90
7159;DHT22;63175;52.374;13.132;2023-11-21T09:09:19;6.60;99.90
7159;DHT22;63175;52.374;13.132;2023-11-21T09:11:46;6.70;99.90
7159;DHT22;63175;52.374;13.132;2023-11-21T09:14:14;6.60;99.90
7159;DHT22;63175;52.374;13.132;2023-11-21T09:16:44;6.60;99.90
7159;DHT22;63175;52.374;13.132;2023-11-21T09:19:12;6.60;99.90
7159;DHT22;63175;52.374;13.132;2023-11-21T09:21:40;6.60;99.90
7159;DHT22;63175;52.374;13.132;2023-11-21T09:24:08;6.60;99.90
7159;DHT22;63175;52.374;13.132;2023-11-21T09:26:35;6.60;99.90
7159;DHT22;63175;52.374;13.132;2023-11-21T09:29:02;6.60;99.90
7159;DHT22;63175;52.374;13.132;2023-11-21T09:31:29;6.60;99.90
7159;DHT22;63175;52.374;13.132;2023-11-21T09:33:58;6.60;99.90
7159;DHT22;63175;52.374;13.132;2023-11-21T09:36:25;6.50;99.90
7159;DHT22;63175;52.374;13.132;2023-11-21T09:38:53;6.50;99.90
7159;DHT22;63175;52.374;13.132;2023-11-21T09:41:26;6.50;99.90
7159;DHT22;63175;52.374;13.132;2023-11-21T09:44:02;6.50;99.90
7159;DHT22;63175;52.374;13.132;2023-11-21T09:46:33;6.50;99.90
7159;DHT22;63175;52.374;13.132;2023-11-21T09:49:02;6.50;99.90
7159;DHT22;63175;52.374;13.132;2023-11-21T09:51:34;6.50;99.90
7159;DHT22;63175;52.374;13.132;2023-11-21T09:54:05;6.60;99.90
7159;DHT22;63175;52.374;13.132;2023-11-21T09:56:34;6.60;99.90
7159;DHT22;63175;52.374;13.132;2023-11-21T09:59:01;6.60;99.90
7159;DHT22;63175;52.374;13.132;2023-11-21T10:01:36;6.50;99.90
7159;DHT22;63175;52.374;13.132;2023-11-21T10:04:05;6.50;99.90
7159;DHT22;63175;52.374;13.132;2023-11-21T10:06:38;6.50;99.90
7159;DHT22;63175;52.374;13.132;2023-11-21T10:09:06;6.50;99.90
7159;DHT22;63175;52.374;13.132;2023-11-21T10:11:39;6.50;99.90
7159;DHT22;63175;52.374;13.132;2023-11-21T10:14:08;6.50;99.90
7159;DHT22;63175;52.374;13.132;2023-11-21T10:16:39;6.50;99.90
7159;DHT22;63175;52.374;13.132;2023-11-21T10:19:09;6.50;99.90
7159;DHT22;63175;52.374;13.132;2023-11-21T10:21:37;6.50;99.90
7159;DHT22;63175;52.374;13.132;2023-11-21T10:24:05;6.50;99.90
7159;DHT22;63175;52.374;13.132;2023-11-21T10:26:33;6.60;99.90
7159;DHT22;63175;52.374;13.132;2023-11-21T10:29:02;6.60;99.90
7159;DHT22;63175;52.374;13.132;2023-11-21T10:31:30;6.60;99.90
7159;DHT22;63175;52.374;13.132;2023-11-21T10:36:41;6.60;99.90
7159;DHT22;63175;52.374;13.132;2023-11-21T10:39:07;6.60;99.90
7159;DHT22;63175;52.374;13.132;2023-11-21T10:41:35;6.60;99.90
7159;DHT22;63175;52.374;13.132;2023-11-21T10:44:02;6.60;99.90
7159;DHT22;63175;52.374;13.132;2023-11-21T10:46:33;6.60;99.90
7159;DHT22;63175;52.374;13.132;2023-11-21T10:49:00;6.60;99.90
7159;DHT22;63175;52.374;13.132;2023-11-21T10:51:27;6.60;99.90
7159;DHT22;63175;52.374;13.132;2023-11-21T10:53:55;6.60;99.90
7159;DHT22;63175;52.374;13.132;2023-11-21T10:56:23;6.60;99.90
7159;DHT22;63175;52.374;13.132;2023-11-21T10:58:52;6.50;99.90
7159;DHT22;63175;52.374;13.132;2023-11-21T11:01:19;6.50;99.90
7159;DHT22;63175;52.374;13.132;2023-11-21T11:03:47;6.50;99.90
7159;DHT22;63175;52.374;13.132;2023-11-21T11:06:15;6.40;99.90
7159;DHT22;63175;52.374;13.132;2023-11-21T11:08:43;6.50;99.90
7159;DHT22;63175;52.374;13.132;2023-11-21T11:11:12;6.50;99.90
7159;DHT22;63175;52.374;13.132;2023-11-21T11:13:43;6.50;99.90
7159;DHT22;63175;52.374;13.132;2023-11-21T11:16:12;6.50;99.90
7159;DHT22;63175;52.374;13.132;2023-11-21T11:18:42;6.50;99.90
7159;DHT22;63175;52.374;13.132;2023-11-21T11:21:25;6.50;99.90
7159;DHT22;63175;52.374;13.132;2023-11-21T11:24:06;6.50;99.90
7159;DHT22;63175;52.374;13.132;2023-11-21T11:26:45;6.50;99.90
7159;DHT22;63175;52.374;13.132;2023-11-21T11:29:18;6.50;99.90
7159;DHT22;63175;52.374;13.132;2023-11-21T11:32:03;6.50;99.90
7159;DHT22;63175;52.374;13.132;2023-11-21T11:34:35;6.50;99.90
7159;DHT22;63175;52.374;13.132;2023-11-21T11:37:06;6.50;99.90
7159;DHT22;63175;52.374;13.132;2023-11-21T11:39:36;6.50;99.90
7159;DHT22;63175;52.374;13.132;2023-11-21T11:42:07;6.50;99.90
7159;DHT22;63175;52.374;13.132;2023-11-21T11:44:48;6.40;99.90
7159;DHT22;63175;52.374;13.132;2023-11-21T11:47:19;6.40;99.90
7159;DHT22;63175;52.374;13.132;2023-11-21T11:49:57;6.40;99.90
7159;DHT22;63175;52.374;13.132;2023-11-21T11:52:41;6.40;99.90
7159;DHT22;63175;52.374;13.132;2023-11-21T11:55:10;6.50;99.90
7159;DHT22;63175;52.374;13.132;2023-11-21T11:57:39;6.50;99.90
7159;DHT22;63175;52.374;13.132;2023-11-21T12:00:10;6.50;99.90
7159;DHT22;63175;52.374;13.132;2023-11-21T12:02:42;6.50;99.90
7159;DHT22;63175;52.374;13.132;2023-11-21T12:05:09;6.40;99.90
7159;DHT22;63175;52.374;13.132;2023-11-21T12:07:46;6.40;99.90
7159;DHT22;63175;52.374;13.132;2023-11-21T12:10:14;6.40;99.90
7159;DHT22;63175;52.374;13.132;2023-11-21T12:12:45;6.30;99.90
7159;DHT22;63175;52.374;13.132;2023-11-21T12:15:12;6.30;99.90
7159;DHT22;63175;52.374;13.132;2023-11-21T12:17:40;6.20;99.90
7159;DHT22;63175;52.374;13.132;2023-11-21T12:20:10;6.20;99.90
7159;DHT22;63175;52.374;13.132;2023-11-21T12:22:44;6.20;99.90
7159;DHT22;63175;52.374;13.132;2023-11-21T12:25:13;6.20;99.90
7159;DHT22;63175;52.374;13.132;2023-11-21T12:27:47;6.20;99.90
7159;DHT22;63175;52.374;13.132;2023-11-21T12:30:16;6.20;99.90
7159;DHT22;63175;52.374;13.132;2023-11-21T12:32:44;6.20;99.90
7159;DHT22;63175;52.374;13.132;2023-11-21T12:35:12;6.20;99.90
7159;DHT22;63175;52.374;13.132;2023-11-21T12:37:39;6.20;99.90
7159;DHT22;63175;52.374;13.132;2023-11-21T12:40:09;6.20;99.90
7159;DHT22;63175;52.374;13.132;2023-11-21T12:42:38;6.20;99.90
7159;DHT22;63175;52.374;13.132;2023-11-21T12:45:18;6.20;99.90
7159;DHT22;63175;52.374;13.132;2023-11-21T12:47:46;6.20;99.90
7159;DHT22;63175;52.374;13.132;2023-11-21T12:50:13;6.10;99.90
7159;DHT22;63175;52.374;13.132;2023-11-21T12:52:42;6.10;99.90
7159;DHT22;63175;52.374;13.132;2023-11-21T12:55:15;6.10;99.90
7159;DHT22;63175;52.374;13.132;2023-11-21T12:57:43;6.10;99.90
7159;DHT22;63175;52.374;13.132;2023-11-21T13:00:12;6.10;99.90
7159;DHT22;63175;52.374;13.132;2023-11-21T13:02:51;6.00;99.90
7159;DHT22;63175;52.374;13.132;2023-11-21T13:05:24;6.00;99.90
7159;DHT22;63175;52.374;13.132;2023-11-21T13:07:52;6.00;99.90
7159;DHT22;63175;52.374;13.132;2023-11-21T13:10:21;6.00;99.90
7159;DHT22;63175;52.374;13.132;2023-11-21T13:12:52;6.00;99.90
7159;DHT22;63175;52.374;13.132;2023-11-21T13:15:21;6.00;99.90
7159;DHT22;63175;52.374;13.132;2023-11-21T13:17:48;6.00;99.90
7159;DHT22;63175;52.374;13.132;2023-11-21T13:20:16;6.00;99.90
7159;DHT22;63175;52.374;13.132;2023-11-21T13:22:49;6.00;99.90
7159;DHT22;63175;52.374;13.132;2023-11-21T13:25:16;5.90;99.90
7159;DHT22;63175;52.374;13.132;2023-11-21T13:27:45;6.00;99.90
7159;DHT22;63175;52.374;13.132;2023-11-21T13:30:13;6.00;99.90
7159;DHT22;63175;52.374;13.132;2023-11-21T13:32:45;6.00;99.90
7159;DHT22;63175;52.374;13.132;2023-11-21T13:35:14;6.00;99.90
7159;DHT22;63175;52.374;13.132;2023-11-21T13:37:50;6.00;99.90
7159;DHT22;63175;52.374;13.132;2023-11-21T13:40:21;6.00;99.90
7159;DHT22;63175;52.374;13.132;2023-11-21T13:42:51;6.00;99.90
7159;DHT22;63175;52.374;13.132;2023-11-21T13:45:21;6.00;99.90
7159;DHT22;63175;52.374;13.132;2023-11-21T13:47:50;6.00;99.90
7159;DHT22;63175;52.374;13.132;2023-11-21T13:50:23;5.90;99.90
7159;DHT22;63175;52.374;13.132;2023-11-21T13:52:54;5.90;99.90
7159;DHT22;63175;52.374;13.132;2023-11-21T13:55:21;5.90;99.90
7159;DHT22;63175;52.374;13.132;2023-11-21T13:57:51;5.90;99.90
7159;DHT22;63175;52.374;13.132;2023-11-21T14:00:18;5.90;99.90
7159;DHT22;63175;52.374;13.132;2023-11-21T14:03:04;5.80;99.90
7159;DHT22;63175;52.374;13.132;2023-11-21T14:05:36;5.80;99.90
7159;DHT22;63175;52.374;13.132;2023-11-21T14:08:05;5.80;99.90
7159;DHT22;63175;52.374;13.132;2023-11-21T14:10:31;5.80;99.90
7159;DHT22;63175;52.374;13.132;2023-11-21T14:13:06;5.80;99.90
7159;DHT22;63175;52.374;13.132;2023-11-21T14:15:32;5.80;99.90
7159;DHT22;63175;52.374;13.132;2023-11-21T14:18:05;5.80;99.90
7159;DHT22;63175;52.374;13.132;2023-11-21T14:20:35;5.70;99.90
7159;DHT22;63175;52.374;13.132;2023-11-21T14:23:02;5.70;99.90
7159;DHT22;63175;52.374;13.132;2023-11-21T14:25:30;5.70;99.90
7159;DHT22;63175;52.374;13.132;2023-11-21T14:27:57;5.60;99.90
7159;DHT22;63175;52.374;13.132;2023-11-21T14:30:24;5.60;99.90
7159;DHT22;63175;52.374;13.132;2023-11-21T14:32:52;5.60;99.90
7159;DHT22;63175;52.374;13.132;2023-11-21T14:35:20;5.60;99.90
7159;DHT22;63175;52.374;13.132;2023-11-21T14:37:48;5.50;99.90
7159;DHT22;63175;52.374;13.132;2023-11-21T14:40:15;5.50;99.90
7159;DHT22;63175;52.374;13.132;2023-11-21T14:42:43;5.50;99.90
7159;DHT22;63175;52.374;13.132;2023-11-21T14:45:13;5.60;99.90
7159;DHT22;63175;52.374;13.132;2023-11-21T14:47:45;5.50;99.90
7159;DHT22;63175;52.374;13.132;2023-11-21T14:50:21;5.50;99.90
7159;DHT22;63175;52.374;13.132;2023-11-21T14:53:06;5.50;99.90
7159;DHT22;63175;52.374;13.132;2023-11-21T14:55:33;5.50;99.90
7159;DHT22;63175;52.374;13.132;2023-11-21T14:58:13;5.50;99.90
7159;DHT22;63175;52.374;13.132;2023-11-21T15:00:45;5.50;99.90
7159;DHT22;63175;52.374;13.132;2023-11-21T15:03:12;5.50;99.90
7159;DHT22;63175;52.374;13.132;2023-11-21T15:06:01;5.40;99.90
7159;DHT22;63175;52.374;13.132;2023-11-21T15:08:44;5.40;99.90
7159;DHT22;63175;52.374;13.132;2023-11-21T15:11:11;5.40;99.90
7159;DHT22;63175;52.374;13.132;2023-11-21T15:13:40;5.30;99.90
7159;DHT22;63175;52.374;13.132;2023-11-21T15:16:08;5.30;99.90
7159;DHT22;63175;52.374;13.132;2023-11-21T15:18:36;5.30;99.90
7159;DHT22;63175;52.374;13.132;2023-11-21T15:21:05;5.20;99.90
7159;DHT22;63175;52.374;13.132;2023-11-21T15:23:36;5.20;99.90
7159;DHT22;63175;52.374;13.132;2023-11-21T15:26:04;5.20;99.90
7159;DHT22;63175;52.374;13.132;2023-11-21T15:28:34;5.20;99.90
7159;DHT22;63175;52.374;13.132;2023-11-21T15:31:01;5.10;99.90
7159;DHT22;63175;52.374;13.132;2023-11-21T15:33:29;5.10;99.90
7159;DHT22;63175;52.374;13.132;2023-11-21T15:35:56;5.10;99.90
7159;DHT22;63175;52.374;13.132;2023-11-21T15:38:25;5.00;99.90
7159;DHT22;63175;52.374;13.132;2023-11-21T15:40:52;5.00;99.90
7159;DHT22;63175;52.374;13.132;2023-11-21T15:43:20;5.00;99.90
7159;DHT22;63175;52.374;13.132;2023-11-21T15:45:46;5.00;99.90
7159;DHT22;63175;52.374;13.132;2023-11-21T15:48:13;5.00;99.90
7159;DHT22;63175;52.374;13.132;2023-11-21T15:50:42;5.00;99.90
7159;DHT22;63175;52.374;13.132;2023-11-21T15:53:09;5.00;99.90
7159;DHT22;63175;52.374;13.132;2023-11-21T15:55:37;4.90;99.90